sensor_id;sensor_type;location;lat;lon;timestamp;pressure;altitude;pressure_sealevel;temperature;humidity
23446;BME280;11895;48.738;9.320;2022-09-11T00:01:41;98836.72;;;18.20;100.00
23446;BME280;11895;48.738;9.320;2022-09-11T00:04:09;98837.72;;;18.19;100.00
23446;BME280;11895;48.738;9.320;2022-09-11T00:06:37;98845.59;;;18.00;100.00
23446;BME280;11895;48.738;9.320;2022-09-11T00:09:06;98841.38;;;18.07;100.00
23446;BME280;11895;48.738;9.320;2022-09-11T00:11:38;98842.09;;;17.98;100.00
23446;BME280;11895;48.738;9.320;2022-09-11T00:14:09;98833.81;;;17.76;100.00
23446;BME280;11895;48.738;9.320;2022-09-11T00:16:39;98835.66;;;17.99;100.00
23446;BME280;11895;48.738;9.320;2022-09-11T00:19:13;98831.13;;;18.11;100.00
23446;BME280;11895;48.738;9.320;2022-09-11T00:21:42;98829.06;;;18.26;100.00
23446;BME280;11895;48.738;9.320;2022-09-11T00:24:09;98831.31;;;18.32;100.00
23446;BME280;11895;48.738;9.320;2022-09-11T00:26:37;98829.44;;;18.32;100.00
23446;BME280;11895;48.738;9.320;2022-09-11T00:29:07;98835.03;;;18.42;100.00
23446;BME280;11895;48.738;9.320;2022-09-11T00:31:35;98824.63;;;18.36;100.00
23446;BME280;11895;48.738;9.320;2022-09-11T00:34:02;98828.56;;;18.32;100.00
23446;BME280;11895;48.738;9.320;2022-09-11T00:36:30;98829.09;;;18.37;100.00
23446;BME280;11895;48.738;9.320;2022-09-11T00:38:58;98832.84;;;18.47;100.00
23446;BME280;11895;48.738;9.320;2022-09-11T00:41:30;98821.47;;;18.18;100.00
23446;BME280;11895;48.738;9.320;2022-09-11T00:44:05;98820.16;;;18.35;100.00
23446;BME280;11895;48.738;9.320;2022-09-11T00:46:56;98831.28;;;18.20;100.00
23446;BME280;11895;48.738;9.320;2022-09-11T00:49:46;98824.41;;;18.39;100.00
23446;BME280;11895;48.738;9.320;2022-09-11T00:52:18;98828.63;;;18.43;100.00
23446;BME280;11895;48.738;9.320;2022-09-11T00:54:53;98826.69;;;17.86;100.00
23446;BME280;11895;48.738;9.320;2022-09-11T00:57:35;98826.84;;;17.95;100.00
23446;BME280;11895;48.738;9.320;2022-09-11T01:00:07;98820.00;;;18.14;100.00
23446;BME280;11895;48.738;9.320;2022-09-11T01:02:35;98821.47;;;18.18;100.00
23446;BME280;11895;48.738;9.320;2022-09-11T01:05:05;98828.53;;;18.09;100.00
23446;BME280;11895;48.738;9.320;2022-09-11T01:07:33;98813.69;;;18.24;100.00
23446;BME280;11895;48.738;9.320;2022-09-11T01:10:04;98806.53;;;18.35;100.00
23446;BME280;11895;48.738;9.320;2022-09-11T01:28:24;98808.44;;;17.62;100.00
23446;BME280;11895;48.738;9.320;2022-09-11T01:31:07;98804.13;;;17.84;100.00
23446;BME280;11895;48.738;9.320;2022-09-11T01:33:50;98809.00;;;17.91;100.00
23446;BME280;11895;48.738;9.320;2022-09-11T01:36:30;98814.28;;;17.82;100.00
23446;BME280;11895;48.738;9.320;2022-09-11T01:39:03;98815.97;;;18.07;100.00
23446;BME280;11895;48.738;9.320;2022-09-11T01:41:36;98821.88;;;18.24;100.00
23446;BME280;11895;48.738;9.320;2022-09-11T01:44:14;98824.25;;;17.94;100.00
23446;BME280;11895;48.738;9.320;2022-09-11T01:46:54;98823.47;;;17.68;100.00
23446;BME280;11895;48.738;9.320;2022-09-11T01:49:28;98824.16;;;17.59;100.00
23446;BME280;11895;48.738;9.320;2022-09-11T01:52:03;98831.41;;;17.47;100.00
23446;BME280;11895;48.738;9.320;2022-09-11T01:54:40;98830.75;;;17.43;100.00
23446;BME280;11895;48.738;9.320;2022-09-11T02:00:11;98822.56;;;17.43;100.00
23446;BME280;11895;48.738;9.320;2022-09-11T02:02:58;98827.88;;;17.58;100.00
23446;BME280;11895;48.738;9.320;2022-09-11T02:05:41;98829.19;;;17.52;100.00
23446;BME280;11895;48.738;9.320;2022-09-11T02:08:29;98838.53;;;17.61;100.00
23446;BME280;11895;48.738;9.320;2022-09-11T02:11:06;98824.16;;;17.59;100.00
23446;BME280;11895;48.738;9.320;2022-09-11T02:13:44;98828.69;;;17.71;100.00
23446;BME280;11895;48.738;9.320;2022-09-11T02:16:51;98834.94;;;17.60;100.00
23446;BME280;11895;48.738;9.320;2022-09-11T02:19:26;98822.16;;;17.73;100.00
23446;BME280;11895;48.738;9.320;2022-09-11T02:21:54;98833.88;;;17.87;100.00
23446;BME280;11895;48.738;9.320;2022-09-11T02:24:25;98838.63;;;17.96;100.00
23446;BME280;11895;48.738;9.320;2022-09-11T02:26:57;98834.69;;;18.00;100.00
23446;BME280;11895;48.738;9.320;2022-09-11T02:29:30;98833.50;;;18.15;100.00
23446;BME280;11895;48.738;9.320;2022-09-11T02:31:59;98839.00;;;18.03;100.00
23446;BME280;11895;48.738;9.320;2022-09-11T02:34:32;98843.59;;;18.02;100.00
23446;BME280;11895;48.738;9.320;2022-09-11T02:51:29;98834.66;;;18.35;100.00
23446;BME280;11895;48.738;9.320;2022-09-11T02:54:11;98835.28;;;18.28;100.00
23446;BME280;11895;48.738;9.320;2022-09-11T02:59:55;98846.72;;;18.44;100.00
23446;BME280;11895;48.738;9.320;2022-09-11T03:02:29;98848.97;;;18.50;100.00
23446;BME280;11895;48.738;9.320;2022-09-11T03:04:58;98847.72;;;18.54;100.00
23446;BME280;11895;48.738;9.320;2022-09-11T03:07:25;98849.75;;;18.63;100.00
23446;BME280;11895;48.738;9.320;2022-09-11T03:09:54;98853.19;;;18.65;100.00
23446;BME280;11895;48.738;9.320;2022-09-11T03:12:23;98843.72;;;18.36;100.00
23446;BME280;11895;48.738;9.320;2022-09-11T03:14:50;98842.25;;;18.43;96.57
23446;BME280;11895;48.738;9.320;2022-09-11T03:17:19;98846.25;;;18.61;100.00
23446;BME280;11895;48.738;9.320;2022-09-11T03:19:47;98847.31;;;18.71;100.00
23446;BME280;11895;48.738;9.320;2022-09-11T03:22:19;98843.09;;;18.79;100.00
23446;BME280;11895;48.738;9.320;2022-09-11T03:24:46;98844.31;;;18.74;100.00
23446;BME280;11895;48.738;9.320;2022-09-11T03:27:15;98846.19;;;18.74;99.66
23446;BME280;11895;48.738;9.320;2022-09-11T03:29:43;98841.09;;;18.81;100.00
23446;BME280;11895;48.738;9.320;2022-09-11T03:32:11;98843.34;;;18.87;96.21
23446;BME280;11895;48.738;9.320;2022-09-11T03:34:38;98847.31;;;18.94;100.00
23446;BME280;11895;48.738;9.320;2022-09-11T03:37:07;98849.03;;;18.95;100.00
23446;BME280;11895;48.738;9.320;2022-09-11T03:39:34;98835.91;;;19.00;100.00
23446;BME280;11895;48.738;9.320;2022-09-11T03:42:03;98848.81;;;18.98;99.33
23446;BME280;11895;48.738;9.320;2022-09-11T03:44:31;98848.53;;;18.90;96.45
23446;BME280;11895;48.738;9.320;2022-09-11T03:46:58;98847.31;;;18.94;94.71
23446;BME280;11895;48.738;9.320;2022-09-11T03:49:26;98856.50;;;18.93;100.00
23446;BME280;11895;48.738;9.320;2022-09-11T03:51:53;98848.56;;;19.01;100.00
23446;BME280;11895;48.738;9.320;2022-09-11T03:54:21;98853.63;;;18.94;97.60
23446;BME280;11895;48.738;9.320;2022-09-11T03:56:50;98858.00;;;18.97;100.00
23446;BME280;11895;48.738;9.320;2022-09-11T03:59:18;98862.81;;;18.82;95.49
23446;BME280;11895;48.738;9.320;2022-09-11T04:01:46;98852.28;;;19.00;100.00
23446;BME280;11895;48.738;9.320;2022-09-11T04:04:16;98865.56;;;18.82;100.00
23446;BME280;11895;48.738;9.320;2022-09-11T04:06:44;98861.81;;;18.83;100.00
23446;BME280;11895;48.738;9.320;2022-09-11T04:09:11;98867.66;;;18.90;100.00
23446;BME280;11895;48.738;9.320;2022-09-11T04:11:39;98865.44;;;18.84;100.00
23446;BME280;11895;48.738;9.320;2022-09-11T04:14:13;98861.22;;;18.91;100.00
23446;BME280;11895;48.738;9.320;2022-09-11T04:16:42;98859.47;;;18.79;100.00
23446;BME280;11895;48.738;9.320;2022-09-11T04:19:10;98857.59;;;18.90;100.00
23446;BME280;11895;48.738;9.320;2022-09-11T04:21:39;98865.44;;;18.95;100.00
23446;BME280;11895;48.738;9.320;2022-09-11T04:24:08;98855.25;;;18.74;100.00
23446;BME280;11895;48.738;9.320;2022-09-11T04:26:36;98865.69;;;18.92;100.00
23446;BME280;11895;48.738;9.320;2022-09-11T04:29:10;98865.56;;;18.82;100.00
23446;BME280;11895;48.738;9.320;2022-09-11T04:31:39;98870.16;;;18.82;100.00
23446;BME280;11895;48.738;9.320;2022-09-11T04:34:14;98873.09;;;18.79;100.00
23446;BME280;11895;48.738;9.320;2022-09-11T04:36:52;98874.84;;;18.80;100.00
23446;BME280;11895;48.738;9.320;2022-09-11T04:39:21;98877.09;;;18.86;100.00
23446;BME280;11895;48.738;9.320;2022-09-11T04:41:49;98875.19;;;18.75;100.00
23446;BME280;11895;48.738;9.320;2022-09-11T04:44:16;98884.25;;;18.75;100.00
23446;BME280;11895;48.738;9.320;2022-09-11T04:46:44;98872.84;;;18.70;98.42
23446;BME280;11895;48.738;9.320;2022-09-11T04:49:11;98876.06;;;18.75;100.00
23446;BME280;11895;48.738;9.320;2022-09-11T04:51:39;98882.44;;;18.76;100.00
23446;BME280;11895;48.738;9.320;2022-09-11T04:54:14;98882.72;;;18.60;100.00
23446;BME280;11895;48.738;9.320;2022-09-11T04:56:42;98889.09;;;18.72;100.00
23446;BME280;11895;48.738;9.320;2022-09-11T04:59:13;98884.84;;;18.68;100.00
23446;BME280;11895;48.738;9.320;2022-09-11T05:01:48;98887.16;;;18.61;100.00
23446;BME280;11895;48.738;9.320;2022-09-11T05:04:16;98891.88;;;18.59;100.00
23446;BME280;11895;48.738;9.320;2022-09-11T05:06:49;98910.25;;;18.57;100.00
23446;BME280;11895;48.738;9.320;2022-09-11T05:09:17;98908.97;;;18.50;100.00
23446;BME280;11895;48.738;9.320;2022-09-11T05:11:46;98910.84;;;18.26;100.00
23446;BME280;11895;48.738;9.320;2022-09-11T05:14:15;98915.91;;;18.43;100.00
23446;BME280;11895;48.738;9.320;2022-09-11T05:16:46;98919.25;;;18.46;100.00
23446;BME280;11895;48.738;9.320;2022-09-11T05:19:15;98923.38;;;18.52;100.00
23446;BME280;11895;48.738;9.320;2022-09-11T05:21:44;98918.16;;;18.49;100.00
23446;BME280;11895;48.738;9.320;2022-09-11T05:24:13;98923.06;;;18.33;100.00
23446;BME280;11895;48.738;9.320;2022-09-11T05:26:40;98923.50;;;18.27;100.00
23446;BME280;11895;48.738;9.320;2022-09-11T05:29:12;98919.06;;;18.37;100.00
23446;BME280;11895;48.738;9.320;2022-09-11T05:31:46;98930.72;;;18.28;100.00
23446;BME280;11895;48.738;9.320;2022-09-11T05:34:17;98932.63;;;18.14;100.00
23446;BME280;11895;48.738;9.320;2022-09-11T05:36:48;98935.88;;;18.19;100.00
23446;BME280;11895;48.738;9.320;2022-09-11T05:39:16;98933.78;;;18.23;100.00
23446;BME280;11895;48.738;9.320;2022-09-11T05:41:44;98945.78;;;18.20;100.00
23446;BME280;11895;48.738;9.320;2022-09-11T05:44:12;98945.31;;;18.27;100.00
23446;BME280;11895;48.738;9.320;2022-09-11T05:46:40;98938.78;;;18.29;100.00
23446;BME280;11895;48.738;9.320;2022-09-11T05:49:07;98944.69;;;18.47;100.00
23446;BME280;11895;48.738;9.320;2022-09-11T05:51:34;98953.09;;;18.44;100.00
23446;BME280;11895;48.738;9.320;2022-09-11T05:54:04;98956.03;;;18.41;100.00
23446;BME280;11895;48.738;9.320;2022-09-11T05:56:33;98957.03;;;18.40;100.00
23446;BME280;11895;48.738;9.320;2022-09-11T05:59:11;98957.91;;;18.40;100.00
23446;BME280;11895;48.738;9.320;2022-09-11T06:01:41;98962.72;;;18.37;100.00
23446;BME280;11895;48.738;9.320;2022-09-11T06:04:17;98960.34;;;18.32;100.00
23446;BME280;11895;48.738;9.320;2022-09-11T06:06:47;98964.06;;;18.31;100.00
23446;BME280;11895;48.738;9.320;2022-09-11T06:09:15;98965.03;;;18.54;100.00
23446;BME280;11895;48.738;9.320;2022-09-11T06:11:43;98966.13;;;18.52;100.00
23446;BME280;11895;48.738;9.320;2022-09-11T06:14:11;98964.38;;;18.50;100.00
23446;BME280;11895;48.738;9.320;2022-09-11T06:16:40;98972.50;;;18.63;100.00
23446;BME280;11895;48.738;9.320;2022-09-11T06:19:11;98979.25;;;18.70;100.00
23446;BME280;11895;48.738;9.320;2022-09-11T06:21:39;98977.09;;;18.87;100.00
23446;BME280;11895;48.738;9.320;2022-09-11T06:24:16;98988.16;;;18.96;100.00
23446;BME280;11895;48.738;9.320;2022-09-11T06:26:44;98983.41;;;18.87;100.00
23446;BME280;11895;48.738;9.320;2022-09-11T06:29:13;98985.53;;;18.95;100.00
23446;BME280;11895;48.738;9.320;2022-09-11T06:31:46;98991.78;;;19.08;100.00
23446;BME280;11895;48.738;9.320;2022-09-11T06:34:20;98990.31;;;19.26;100.00
23446;BME280;11895;48.738;9.320;2022-09-11T06:36:47;98983.84;;;19.16;100.00
23446;BME280;11895;48.738;9.320;2022-09-11T06:39:18;98988.38;;;19.51;100.00
23446;BME280;11895;48.738;9.320;2022-09-11T06:41:49;99001.41;;;19.59;100.00
23446;BME280;11895;48.738;9.320;2022-09-11T06:44:27;99002.53;;;19.56;100.00
23446;BME280;11895;48.738;9.320;2022-09-11T06:46:58;98995.28;;;19.33;100.00
23446;BME280;11895;48.738;9.320;2022-09-11T06:49:26;99000.25;;;19.27;100.00
23446;BME280;11895;48.738;9.320;2022-09-11T06:52:13;99005.13;;;19.58;100.00
23446;BME280;11895;48.738;9.320;2022-09-11T06:54:51;99001.75;;;19.43;100.00
23446;BME280;11895;48.738;9.320;2022-09-11T06:57:19;99006.03;;;19.58;100.00
23446;BME280;11895;48.738;9.320;2022-09-11T06:59:46;99011.94;;;19.52;100.00
23446;BME280;11895;48.738;9.320;2022-09-11T07:02:15;99009.72;;;19.35;100.00
23446;BME280;11895;48.738;9.320;2022-09-11T07:04:45;99004.88;;;19.49;99.66
23446;BME280;11895;48.738;9.320;2022-09-11T07:07:13;99009.53;;;19.60;100.00
23446;BME280;11895;48.738;9.320;2022-09-11T07:09:41;99003.31;;;19.69;99.69
23446;BME280;11895;48.738;9.320;2022-09-11T07:12:09;99008.03;;;19.79;97.33
23446;BME280;11895;48.738;9.320;2022-09-11T07:14:38;99009.75;;;19.91;97.93
23446;BME280;11895;48.738;9.320;2022-09-11T07:17:11;99002.69;;;19.88;95.37
23446;BME280;11895;48.738;9.320;2022-09-11T07:19:40;99006.03;;;20.03;96.31
23446;BME280;11895;48.738;9.320;2022-09-11T07:22:09;99011.47;;;19.92;97.56
23446;BME280;11895;48.738;9.320;2022-09-11T07:24:36;99006.53;;;19.97;96.73
23446;BME280;11895;48.738;9.320;2022-09-11T07:27:04;99013.09;;;20.17;95.59
23446;BME280;11895;48.738;9.320;2022-09-11T07:29:34;99008.22;;;20.20;95.43
23446;BME280;11895;48.738;9.320;2022-09-11T07:32:02;99005.03;;;20.04;96.21
23446;BME280;11895;48.738;9.320;2022-09-11T07:34:30;99010.50;;;20.04;96.03
23446;BME280;11895;48.738;9.320;2022-09-11T07:37:02;99017.56;;;20.18;96.44
23446;BME280;11895;48.738;9.320;2022-09-11T07:39:30;99021.88;;;20.32;95.72
23446;BME280;11895;48.738;9.320;2022-09-11T07:42:04;99019.84;;;20.56;93.73
23446;BME280;11895;48.738;9.320;2022-09-11T07:44:33;99023.59;;;20.55;93.11
23446;BME280;11895;48.738;9.320;2022-09-11T07:47:02;99029.25;;;20.74;91.49
23446;BME280;11895;48.738;9.320;2022-09-11T07:49:35;99027.41;;;20.96;90.25
23446;BME280;11895;48.738;9.320;2022-09-11T07:52:03;99028.44;;;20.84;89.70
23446;BME280;11895;48.738;9.320;2022-09-11T07:54:38;99034.19;;;20.81;90.26
23446;BME280;11895;48.738;9.320;2022-09-11T07:57:06;99039.50;;;20.61;91.79
23446;BME280;11895;48.738;9.320;2022-09-11T07:59:34;99031.59;;;20.24;94.90
23446;BME280;11895;48.738;9.320;2022-09-11T08:02:02;99043.97;;;20.40;92.17
23446;BME280;11895;48.738;9.320;2022-09-11T08:04:30;99042.00;;;20.53;92.70
23446;BME280;11895;48.738;9.320;2022-09-11T08:06:58;99044.78;;;20.74;90.23
23446;BME280;11895;48.738;9.320;2022-09-11T08:09:30;99033.66;;;20.87;89.26
23446;BME280;11895;48.738;9.320;2022-09-11T08:12:00;99056.44;;;20.87;89.51
23446;BME280;11895;48.738;9.320;2022-09-11T08:14:30;99038.44;;;21.05;87.57
23446;BME280;11895;48.738;9.320;2022-09-11T08:17:05;99043.59;;;20.99;88.76
23446;BME280;11895;48.738;9.320;2022-09-11T08:19:32;99050.00;;;21.09;87.62
23446;BME280;11895;48.738;9.320;2022-09-11T08:22:01;99054.09;;;20.50;93.57
23446;BME280;11895;48.738;9.320;2022-09-11T08:24:33;99053.53;;;20.68;100.00
23446;BME280;11895;48.738;9.320;2022-09-11T08:27:03;99050.94;;;20.66;94.11
23446;BME280;11895;48.738;9.320;2022-09-11T08:29:34;99059.75;;;20.70;93.75
23446;BME280;11895;48.738;9.320;2022-09-11T08:32:03;99068.06;;;20.79;90.66
23446;BME280;11895;48.738;9.320;2022-09-11T08:34:32;99061.84;;;21.10;90.52
23446;BME280;11895;48.738;9.320;2022-09-11T08:37:00;99056.13;;;21.34;86.17
23446;BME280;11895;48.738;9.320;2022-09-11T08:39:30;99061.66;;;21.64;85.56
23446;BME280;11895;48.738;9.320;2022-09-11T08:42:04;99057.03;;;21.86;81.63
23446;BME280;11895;48.738;9.320;2022-09-11T08:47:17;99055.50;;;22.43;79.29
23446;BME280;11895;48.738;9.320;2022-09-11T08:50:02;99054.22;;;22.47;78.23
23446;BME280;11895;48.738;9.320;2022-09-11T08:52:38;99057.69;;;21.78;79.92
23446;BME280;11895;48.738;9.320;2022-09-11T08:55:12;99062.81;;;21.62;81.06
23446;BME280;11895;48.738;9.320;2022-09-11T08:58:07;99053.97;;;22.50;80.42
23446;BME280;11895;48.738;9.320;2022-09-11T09:01:03;99057.72;;;22.49;72.62
23446;BME280;11895;48.738;9.320;2022-09-11T09:12:48;99062.09;;;22.80;72.48
23446;BME280;11895;48.738;9.320;2022-09-11T09:18:02;99067.69;;;21.89;100.00
23446;BME280;11895;48.738;9.320;2022-09-11T09:20:42;99075.81;;;21.27;100.00
23446;BME280;11895;48.738;9.320;2022-09-11T09:23:35;99077.25;;;21.11;100.00
23446;BME280;11895;48.738;9.320;2022-09-11T09:26:13;99086.53;;;20.98;99.92
23446;BME280;11895;48.738;9.320;2022-09-11T09:28:47;99085.56;;;20.88;95.27
23446;BME280;11895;48.738;9.320;2022-09-11T09:31:21;99096.97;;;21.04;95.58
23446;BME280;11895;48.738;9.320;2022-09-11T09:34:11;99087.56;;;20.86;96.83
23446;BME280;11895;48.738;9.320;2022-09-11T09:37:17;99086.00;;;20.72;91.56
23446;BME280;11895;48.738;9.320;2022-09-11T09:39:48;99077.59;;;21.17;93.10
23446;BME280;11895;48.738;9.320;2022-09-11T09:47:52;99064.88;;;22.30;84.02
23446;BME280;11895;48.738;9.320;2022-09-11T09:50:24;99064.66;;;22.72;80.33
23446;BME280;11895;48.738;9.320;2022-09-11T09:53:12;99071.41;;;23.08;73.22
23446;BME280;11895;48.738;9.320;2022-09-11T09:55:43;99058.91;;;23.72;68.65
23446;BME280;11895;48.738;9.320;2022-09-11T09:58:13;99061.25;;;24.42;65.51
23446;BME280;11895;48.738;9.320;2022-09-11T10:00:41;99065.84;;;24.96;59.55
23446;BME280;11895;48.738;9.320;2022-09-11T10:03:19;99056.41;;;25.17;58.83
23446;BME280;11895;48.738;9.320;2022-09-11T10:05:50;99068.88;;;24.75;59.79
23446;BME280;11895;48.738;9.320;2022-09-11T10:08:32;99061.81;;;24.91;58.93
23446;BME280;11895;48.738;9.320;2022-09-11T10:11:04;99068.03;;;24.93;59.36
23446;BME280;11895;48.738;9.320;2022-09-11T10:13:36;99070.75;;;24.75;58.33
23446;BME280;11895;48.738;9.320;2022-09-11T10:16:23;99063.78;;;24.80;57.00
23446;BME280;11895;48.738;9.320;2022-09-11T10:18:54;99070.78;;;24.93;55.17
23446;BME280;11895;48.738;9.320;2022-09-11T10:21:25;99055.56;;;25.16;55.98
23446;BME280;11895;48.738;9.320;2022-09-11T10:26:38;99060.84;;;24.64;55.35
23446;BME280;11895;48.738;9.320;2022-09-11T10:31:52;99057.75;;;25.12;58.69
23446;BME280;11895;48.738;9.320;2022-09-11T10:34:23;99072.03;;;24.98;54.07
23446;BME280;11895;48.738;9.320;2022-09-11T10:39:31;99068.13;;;25.36;54.50
23446;BME280;11895;48.738;9.320;2022-09-11T10:44:48;99059.00;;;25.62;51.09
23446;BME280;11895;48.738;9.320;2022-09-11T10:47:23;99062.63;;;25.80;49.86
23446;BME280;11895;48.738;9.320;2022-09-11T10:50:17;99052.34;;;26.51;49.46
23446;BME280;11895;48.738;9.320;2022-09-11T10:55:38;99054.72;;;27.04;45.68
23446;BME280;11895;48.738;9.320;2022-09-11T10:58:22;99057.75;;;26.34;46.23
23446;BME280;11895;48.738;9.320;2022-09-11T11:00:54;99054.38;;;26.49;45.99
23446;BME280;11895;48.738;9.320;2022-09-11T11:03:24;99048.72;;;25.72;47.24
23446;BME280;11895;48.738;9.320;2022-09-11T11:12:08;99056.06;;;24.66;53.52
23446;BME280;11895;48.738;9.320;2022-09-11T11:32:15;99048.34;;;27.12;45.61
23446;BME280;11895;48.738;9.320;2022-09-11T11:37:48;99049.38;;;27.11;44.20
23446;BME280;11895;48.738;9.320;2022-09-11T11:43:11;99039.28;;;26.01;45.16
23446;BME280;11895;48.738;9.320;2022-09-11T11:46:04;99046.22;;;26.05;45.29
23446;BME280;11895;48.738;9.320;2022-09-11T11:48:59;99053.19;;;25.21;46.06
23446;BME280;11895;48.738;9.320;2022-09-11T11:51:33;99055.72;;;25.58;46.77
23446;BME280;11895;48.738;9.320;2022-09-11T11:54:26;99043.75;;;25.94;47.34
23446;BME280;11895;48.738;9.320;2022-09-11T11:57:06;99052.44;;;26.91;46.10
23446;BME280;11895;48.738;9.320;2022-09-11T11:59:53;99046.28;;;27.55;42.69
23446;BME280;11895;48.738;9.320;2022-09-11T12:02:29;99051.97;;;28.50;42.29
23446;BME280;11895;48.738;9.320;2022-09-11T12:05:10;99055.50;;;28.75;39.43
23446;BME280;11895;48.738;9.320;2022-09-11T12:07:54;99051.19;;;29.03;39.07
23446;BME280;11895;48.738;9.320;2022-09-11T12:13:02;99048.22;;;29.51;39.04
23446;BME280;11895;48.738;9.320;2022-09-11T12:15:33;99046.63;;;29.33;39.89
23446;BME280;11895;48.738;9.320;2022-09-11T12:18:23;99048.72;;;29.08;39.72
23446;BME280;11895;48.738;9.320;2022-09-11T12:20:50;99039.97;;;29.19;40.20
23446;BME280;11895;48.738;9.320;2022-09-11T12:37:29;99040.66;;;33.17;32.51
23446;BME280;11895;48.738;9.320;2022-09-11T12:40:22;99039.66;;;33.44;31.46
23446;BME280;11895;48.738;9.320;2022-09-11T12:45:53;99036.25;;;31.56;33.54
23446;BME280;11895;48.738;9.320;2022-09-11T12:48:32;99040.41;;;31.02;34.74
23446;BME280;11895;48.738;9.320;2022-09-11T12:51:06;99041.75;;;31.06;34.89
23446;BME280;11895;48.738;9.320;2022-09-11T12:53:46;99033.28;;;30.78;34.13
23446;BME280;11895;48.738;9.320;2022-09-11T12:56:19;99036.13;;;31.21;34.71
23446;BME280;11895;48.738;9.320;2022-09-11T12:59:07;99035.69;;;31.67;33.34
23446;BME280;11895;48.738;9.320;2022-09-11T13:01:41;99037.91;;;31.99;33.34
23446;BME280;11895;48.738;9.320;2022-09-11T13:06:58;99036.41;;;32.32;32.90
23446;BME280;11895;48.738;9.320;2022-09-11T13:09:34;99032.97;;;34.18;30.18
23446;BME280;11895;48.738;9.320;2022-09-11T13:15:02;99031.53;;;36.07;27.10
23446;BME280;11895;48.738;9.320;2022-09-11T13:17:32;99031.38;;;35.14;27.99
23446;BME280;11895;48.738;9.320;2022-09-11T13:22:50;99031.44;;;32.55;31.09
23446;BME280;11895;48.738;9.320;2022-09-11T13:25:24;99017.78;;;31.48;32.41
23446;BME280;11895;48.738;9.320;2022-09-11T13:27:59;99020.28;;;31.00;33.74
23446;BME280;11895;48.738;9.320;2022-09-11T13:30:28;99015.22;;;30.38;34.60
23446;BME280;11895;48.738;9.320;2022-09-11T13:33:09;99015.50;;;29.99;36.10
23446;BME280;11895;48.738;9.320;2022-09-11T13:35:44;99004.47;;;29.76;36.51
23446;BME280;11895;48.738;9.320;2022-09-11T13:38:18;99009.06;;;29.45;37.51
23446;BME280;11895;48.738;9.320;2022-09-11T13:40:54;99012.22;;;28.34;39.08
23446;BME280;11895;48.738;9.320;2022-09-11T13:43:57;99011.38;;;28.65;39.07
23446;BME280;11895;48.738;9.320;2022-09-11T13:46:27;99011.47;;;28.49;40.27
23446;BME280;11895;48.738;9.320;2022-09-11T13:49:17;99011.78;;;28.54;40.38
23446;BME280;11895;48.738;9.320;2022-09-11T13:52:05;99003.47;;;28.54;40.44
23446;BME280;11895;48.738;9.320;2022-09-11T13:54:42;99008.47;;;28.58;40.06
23446;BME280;11895;48.738;9.320;2022-09-11T13:57:17;99013.91;;;28.43;39.82
23446;BME280;11895;48.738;9.320;2022-09-11T14:02:39;99003.69;;;28.44;40.25
23446;BME280;11895;48.738;9.320;2022-09-11T14:05:22;99001.72;;;28.53;40.30
23446;BME280;11895;48.738;9.320;2022-09-11T14:08:21;99010.28;;;28.74;39.57
23446;BME280;11895;48.738;9.320;2022-09-11T14:10:54;98999.53;;;28.71;40.60
23446;BME280;11895;48.738;9.320;2022-09-11T14:18:47;98995.84;;;29.48;39.23
23446;BME280;11895;48.738;9.320;2022-09-11T14:21:40;98980.63;;;29.81;37.67
23446;BME280;11895;48.738;9.320;2022-09-11T14:33:21;98974.66;;;34.35;30.78
23446;BME280;11895;48.738;9.320;2022-09-11T14:35:52;98981.56;;;34.84;29.46
23446;BME280;11895;48.738;9.320;2022-09-11T14:38:23;98978.38;;;36.56;27.42
23446;BME280;11895;48.738;9.320;2022-09-11T14:40:56;98978.78;;;37.73;25.71
23446;BME280;11895;48.738;9.320;2022-09-11T14:43:32;98985.47;;;38.66;24.86
23446;BME280;11895;48.738;9.320;2022-09-11T14:46:03;98985.53;;;36.33;26.23
23446;BME280;11895;48.738;9.320;2022-09-11T14:48:33;98983.66;;;36.09;27.45
23446;BME280;11895;48.738;9.320;2022-09-11T14:51:02;98974.38;;;34.57;28.48
23446;BME280;11895;48.738;9.320;2022-09-11T14:53:38;98969.09;;;34.80;28.17
23446;BME280;11895;48.738;9.320;2022-09-11T14:56:09;98975.44;;;35.00;28.35
23446;BME280;11895;48.738;9.320;2022-09-11T14:58:36;98972.38;;;35.40;27.22
23446;BME280;11895;48.738;9.320;2022-09-11T15:01:04;98971.28;;;35.10;28.34
23446;BME280;11895;48.738;9.320;2022-09-11T15:03:32;98963.44;;;34.48;27.70
23446;BME280;11895;48.738;9.320;2022-09-11T15:06:00;98967.53;;;34.97;26.58
23446;BME280;11895;48.738;9.320;2022-09-11T15:08:27;98967.22;;;36.49;25.07
23446;BME280;11895;48.738;9.320;2022-09-11T15:10:54;98974.03;;;37.20;23.87
23446;BME280;11895;48.738;9.320;2022-09-11T15:13:21;98956.44;;;37.90;23.99
23446;BME280;11895;48.738;9.320;2022-09-11T15:15:50;98964.81;;;38.48;22.49
23446;BME280;11895;48.738;9.320;2022-09-11T15:18:18;98961.59;;;39.25;22.50
23446;BME280;11895;48.738;9.320;2022-09-11T15:20:45;98958.16;;;39.69;21.46
23446;BME280;11895;48.738;9.320;2022-09-11T15:23:12;98961.91;;;39.74;21.98
23446;BME280;11895;48.738;9.320;2022-09-11T15:25:39;98960.06;;;38.37;22.57
23446;BME280;11895;48.738;9.320;2022-09-11T15:28:07;98949.88;;;38.60;23.28
23446;BME280;11895;48.738;9.320;2022-09-11T15:30:36;98954.00;;;38.69;22.74
23446;BME280;11895;48.738;9.320;2022-09-11T15:33:04;98953.25;;;39.02;22.55
23446;BME280;11895;48.738;9.320;2022-09-11T15:35:33;98951.47;;;39.41;22.00
23446;BME280;11895;48.738;9.320;2022-09-11T15:38:00;98952.44;;;39.18;22.37
23446;BME280;11895;48.738;9.320;2022-09-11T15:40:31;98953.78;;;39.16;21.81
23446;BME280;11895;48.738;9.320;2022-09-11T15:42:58;98946.00;;;37.67;23.42
23446;BME280;11895;48.738;9.320;2022-09-11T15:45:26;98945.31;;;38.06;23.21
23446;BME280;11895;48.738;9.320;2022-09-11T15:47:53;98938.34;;;36.60;24.54
23446;BME280;11895;48.738;9.320;2022-09-11T15:50:20;98941.94;;;36.67;24.33